KSBY/SBY METAR and TAF weather

Enter ICAO airport designator
Station Type Date Time Source
KSBY METAR 2020/11/28 19:54 UTC NOAA

KSBY 281954Z 28012G19KT 10SM CLR 15/03 A3002 RMK AO2 SLP167 T01500033


Station Type Date Time Source
KSBY Decoded METAR 2020/11/28 19:54 UTC NOAA

SALISBURY-WICOMICO CTY REG, MD, United States (KSBY) 38-20N 075-30W 19M
Nov 28, 2020 - 02:54 PM EST / 2020.11.28 1954 UTC
Wind: from the W (280 degrees) at 14 MPH (12 KT) gusting to 22 MPH (19 KT):0
Visibility: 10 mile(s):0
Sky conditions: clear
Temperature: 59.0 F (15.0 C)
Dew Point: 37.9 F (3.3 C)
Relative Humidity: 45%
Pressure (altimeter): 30.02 in. Hg (1016 hPa)
ob: KSBY 281954Z 28012G19KT 10SM CLR 15/03 A3002 RMK AO2 SLP167 T01500033
cycle: 20

Station Type Date Time Source
KSBY TAF 2020/11/28 18:24 UTC NOAA

TAF KSBY 281722Z 2818/2918 33009G15KT P6SM SCT050
FM282200 VRB05KT P6SM SKC
FM290800 00000KT P6SM SKC

Example: see airport list